Dallas, TX

6:03 AM CDT on July 25, 2016 (GMT -0500)
MAYOR'S WAY | | Change Station

Elev 492 ft 32.80 °N, 96.81 °W | Updated 8 minutes ago

Mostly Cloudy
Mostly Cloudy
81.5 °F
Feels Like 86 °F
N
3.7
Wind Variable Wind from East

Today
High -- | Low -- °F
--% Chance of Precip.
Yesterday
High -- | Low -- °F
Precip. -- in
Pressure 29.94 in
Visibility 10.0 miles
Clouds Few 12000 ft
Mostly Cloudy 30000 ft
Heat Index 86 °F
Dew Point 71 °F
Humidity 71%
Rainfall 0.00 in
Snow Depth Not available.
6:36 AM 8:30 PM
Waning Gibbous, 67% visible
METAR KDAL 251053Z 15006KT 10SM FEW120 BKN300 28/23 A2996 RMK AO2 SLP137 T02830228 $
Pressure 29.94 in
Visibility 10.0 miles
Clouds Few 12000 ft
Mostly Cloudy 30000 ft
Heat Index 86 °F
Dew Point 71 °F
Humidity 71%
Rainfall 0.00 in
Snow Depth Not available.
6:36 AM 8:30 PM
Waning Gibbous, 67% visible
METAR KDAL 251053Z 15006KT 10SM FEW120 BKN300 28/23 A2996 RMK AO2 SLP137 T02830228 $

10-Day Weather Forecast

Almanac

Astronomy

Jul. 25, 2016 Rise Set
Actual Time
Civil Twilight
Nautical Twilight
Astronomical Twilight
Moon
Length of Visible Light
Length of Day
Tomorrow will be .
, % of the Moon is Illuminated

Today's Extremes

State Highs State Lows

Community

WunderPhotos

Upload Photos

1,927,291 photos uploaded!

WunderBlog® & News

Nearby

Air Quality

  Air Quality AQ Index Pollutant
Not available.

Snow Depth

Station Depth Elevation

Earthquake Activity

City Distance Mag. Time & Date
Minimum magnitude displayed is 2.5.

Coastal Water Temperatures

Place Temperature

Stations

Nearby Weather Stations

Station Location Temp. Windchill Dew Point Humidity Wind Precip. Elev Updated Type
                   

Watches & Warnings

There are currently no watches in effect.